Time;durP1;ratioP1;P1;durP2;ratioP2;P2;SDS_P1;SDS_P2;PMS_P1;PMS_P2;Temp;Humidity;BMP_temperature;BMP_pressure;BME280_temperature;BME280_humidity;BME280_pressure;Samples;Min_cycle;Max_cycle;Signal;HPM_P1;HPM_P2
2023/01/18 00:04:05;;;;;;;6.23;4.23;;;2.40;99.90;;;;;;10356538;28;20309;-74
2023/01/18 00:09:05;;;;;;;6.33;4.00;;;2.40;99.90;;;;;;10345903;28;20263;-73
2023/01/18 00:14:06;;;;;;;6.73;4.07;;;2.40;99.90;;;;;;10353730;28;20221;-73
2023/01/18 00:19:11;;;;;;;5.53;3.70;;;2.40;99.90;;;;;;10357407;28;20305;-73
2023/01/18 00:24:13;;;;;;;6.57;3.93;;;2.40;99.90;;;;;;10354897;28;20766;-73
2023/01/18 00:29:15;;;;;;;5.63;4.10;;;2.30;99.90;;;;;;10343860;28;20226;-73
2023/01/18 00:34:15;;;;;;;7.13;4.27;;;2.30;99.90;;;;;;10355376;28;20221;-74
2023/01/18 00:39:16;;;;;;;7.07;4.27;;;2.30;99.90;;;;;;10357699;28;20707;-74
2023/01/18 00:44:16;;;;;;;6.53;4.00;;;2.20;99.90;;;;;;10355499;28;20222;-74
2023/01/18 00:49:17;;;;;;;7.50;4.03;;;2.20;99.90;;;;;;10362179;28;20229;-74
2023/01/18 00:54:18;;;;;;;7.27;4.40;;;2.20;99.90;;;;;;10355389;28;20219;-73
2023/01/18 00:59:18;;;;;;;7.13;4.67;;;2.30;99.90;;;;;;10354072;28;20287;-74
2023/01/18 01:09:38;;;;;;;5.17;4.10;;;2.20;99.90;;;;;;10356628;28;20229;-74
2023/01/18 01:30:39;;;;;;;7.30;4.00;;;2.10;99.90;;;;;;10348237;28;20213;-72
2023/01/18 01:35:39;;;;;;;8.47;4.73;;;2.00;99.90;;;;;;10336050;28;20214;-74
2023/01/18 01:40:40;;;;;;;6.63;4.17;;;2.00;99.90;;;;;;10354636;28;20231;-74
2023/01/18 01:45:41;;;;;;;6.07;4.00;;;2.00;99.90;;;;;;10355196;28;20260;-73
2023/01/18 01:50:41;;;;;;;6.77;4.07;;;2.00;99.90;;;;;;10347217;28;20209;-73
2023/01/18 01:55:42;;;;;;;6.37;4.33;;;1.90;99.90;;;;;;10354261;28;20213;-73
2023/01/18 02:00:43;;;;;;;8.03;4.10;;;1.90;99.90;;;;;;10344876;28;20233;-72
2023/01/18 02:06:08;;;;;;;6.33;4.27;;;1.90;99.90;;;;;;10359533;28;20383;-73
2023/01/18 02:11:08;;;;;;;6.07;4.20;;;1.80;99.90;;;;;;10348119;28;20224;-72
2023/01/18 02:16:36;;;;;;;6.73;3.97;;;1.80;99.90;;;;;;10355790;28;20696;-73
2023/01/18 02:21:42;;;;;;;6.10;4.30;;;1.80;99.90;;;;;;10327408;28;20234;-72
2023/01/18 02:26:58;;;;;;;5.57;4.30;;;1.80;99.90;;;;;;10346282;28;20289;-72
2023/01/18 02:32:37;;;;;;;6.53;4.47;;;1.80;99.90;;;;;;10346293;28;20248;-72
2023/01/18 02:37:43;;;;;;;5.00;3.60;;;1.80;99.90;;;;;;10325406;28;20224;-72
2023/01/18 02:48:05;;;;;;;6.43;4.30;;;1.90;99.90;;;;;;10351238;28;20587;-73
2023/01/18 02:53:06;;;;;;;9.07;5.20;;;1.90;99.90;;;;;;10347947;28;20296;-73
2023/01/18 02:58:15;;;;;;;7.20;4.37;;;2.00;99.90;;;;;;10348958;28;20304;-73
2023/01/18 03:03:17;;;;;;;6.47;3.93;;;2.00;99.90;;;;;;10348089;28;20213;-72
2023/01/18 03:08:26;;;;;;;7.23;3.73;;;2.10;99.90;;;;;;10345968;28;20272;-74
2023/01/18 03:13:55;;;;;;;5.97;4.07;;;2.10;99.90;;;;;;10351504;28;20222;-73
2023/01/18 03:19:03;;;;;;;5.73;3.77;;;2.10;99.90;;;;;;10346959;28;20704;-71
2023/01/18 03:24:07;;;;;;;5.00;3.93;;;2.20;99.90;;;;;;10342514;28;20213;-72
2023/01/18 03:34:34;;;;;;;6.33;3.90;;;2.20;99.90;;;;;;10351572;28;20229;-73
2023/01/18 03:39:57;;;;;;;9.60;4.17;;;2.30;99.90;;;;;;10367070;28;20248;-73
2023/01/18 03:45:07;;;;;;;7.13;3.93;;;2.30;99.90;;;;;;10366174;28;20359;-73
2023/01/18 03:50:08;;;;;;;7.80;4.20;;;2.30;99.90;;;;;;10333711;28;20266;-72
2023/01/18 03:55:17;;;;;;;7.93;4.53;;;2.40;99.90;;;;;;10345510;28;20189;-72
2023/01/18 04:00:18;;;;;;;8.70;4.30;;;2.40;99.90;;;;;;10356053;28;20209;-73
2023/01/18 04:05:20;;;;;;;8.90;4.53;;;2.40;99.90;;;;;;10351033;28;20200;-73
2023/01/18 04:10:20;;;;;;;6.60;4.17;;;2.40;99.90;;;;;;10352703;28;20294;-73
2023/01/18 04:15:24;;;;;;;7.40;4.53;;;2.40;99.90;;;;;;10344336;28;20186;-72
2023/01/18 04:20:24;;;;;;;7.93;4.40;;;2.50;99.90;;;;;;10356813;28;20244;-73
2023/01/18 04:25:25;;;;;;;7.33;4.20;;;2.50;99.90;;;;;;10352157;28;20252;-72
2023/01/18 04:30:26;;;;;;;6.67;4.10;;;2.50;99.90;;;;;;10355120;28;20657;-73
2023/01/18 04:35:26;;;;;;;10.03;4.63;;;2.50;99.90;;;;;;10351033;28;20272;-72
2023/01/18 04:40:27;;;;;;;7.57;3.57;;;2.50;99.90;;;;;;10355690;28;20245;-72
2023/01/18 04:45:27;;;;;;;8.87;4.27;;;2.50;99.90;;;;;;10357931;28;20292;-72
2023/01/18 04:50:28;;;;;;;5.60;3.80;;;2.40;99.90;;;;;;10335655;28;20229;-72
2023/01/18 04:55:29;;;;;;;8.17;4.50;;;2.40;99.90;;;;;;10351309;28;20328;-72
2023/01/18 05:00:29;;;;;;;7.23;4.23;;;2.40;99.90;;;;;;10356459;28;20294;-73
2023/01/18 05:05:30;;;;;;;5.80;3.77;;;2.30;99.90;;;;;;10346104;28;20708;-73
2023/01/18 05:10:32;;;;;;;9.90;4.93;;;2.30;99.90;;;;;;10340329;28;20226;-72
2023/01/18 05:15:33;;;;;;;8.43;5.23;;;2.30;99.90;;;;;;10355885;28;20224;-72
2023/01/18 05:20:34;;;;;;;9.37;5.60;;;2.20;99.90;;;;;;10346510;28;20300;-71
2023/01/18 05:25:34;;;;;;;8.07;5.10;;;2.30;99.90;;;;;;10355626;28;20355;-73
2023/01/18 05:30:41;;;;;;;10.23;5.70;;;2.30;99.90;;;;;;10356400;28;20237;-72
2023/01/18 05:35:52;;;;;;;9.80;5.40;;;2.20;99.90;;;;;;10361842;28;20213;-72
2023/01/18 05:40:53;;;;;;;9.67;5.37;;;2.20;99.90;;;;;;10351514;28;20259;-73
2023/01/18 05:45:54;;;;;;;10.53;5.00;;;2.20;99.90;;;;;;10338295;28;20233;-73
2023/01/18 05:50:55;;;;;;;9.37;4.93;;;2.10;99.90;;;;;;10354879;28;20764;-72
2023/01/18 05:55:57;;;;;;;6.77;3.90;;;2.10;99.90;;;;;;10346331;28;20723;-72
2023/01/18 06:00:58;;;;;;;6.63;4.27;;;2.10;99.90;;;;;;10347130;28;20565;-73
2023/01/18 06:05:59;;;;;;;7.60;4.30;;;2.10;99.90;;;;;;10334294;28;20217;-72
2023/01/18 06:11:00;;;;;;;9.90;4.50;;;2.10;99.90;;;;;;10344420;28;20228;-73
2023/01/18 06:16:01;;;;;;;7.10;4.07;;;2.10;99.90;;;;;;10348063;28;20687;-73
2023/01/18 06:21:02;;;;;;;6.20;3.83;;;2.10;99.90;;;;;;10353828;28;20316;-73
2023/01/18 06:26:03;;;;;;;6.30;4.23;;;2.10;99.90;;;;;;10351154;28;20328;-72
2023/01/18 06:31:07;;;;;;;6.57;3.87;;;2.10;99.90;;;;;;10348066;28;20498;-72
2023/01/18 06:36:07;;;;;;;6.70;3.80;;;2.10;99.90;;;;;;10349253;28;20226;-72
2023/01/18 06:41:08;;;;;;;6.33;3.60;;;2.20;99.90;;;;;;10348487;28;20773;-72
2023/01/18 06:46:10;;;;;;;7.93;3.80;;;2.30;99.90;;;;;;10349287;28;20224;-72
2023/01/18 06:51:11;;;;;;;6.13;3.50;;;2.30;99.90;;;;;;10347909;28;20626;-72
2023/01/18 06:56:13;;;;;;;8.63;3.43;;;2.40;99.90;;;;;;10348755;28;20320;-73
2023/01/18 07:01:13;;;;;;;4.47;3.17;;;2.40;99.90;;;;;;10348752;28;20233;-72
2023/01/18 07:06:14;;;;;;;5.70;3.40;;;2.30;99.90;;;;;;10346633;28;20230;-73
2023/01/18 07:11:14;;;;;;;3.90;2.90;;;2.30;99.90;;;;;;10348000;28;20232;-73
2023/01/18 07:16:19;;;;;;;4.07;2.83;;;2.30;99.90;;;;;;10347123;28;20229;-72
2023/01/18 07:21:28;;;;;;;7.07;3.03;;;2.30;99.90;;;;;;10341967;28;20987;-73
2023/01/18 07:26:28;;;;;;;6.57;3.23;;;2.30;99.90;;;;;;10348473;28;20253;-72
2023/01/18 07:31:32;;;;;;;5.70;3.00;;;2.30;99.90;;;;;;10344375;28;20248;-72
2023/01/18 07:36:32;;;;;;;3.93;3.00;;;2.40;99.90;;;;;;10350690;28;20268;-73
2023/01/18 07:41:34;;;;;;;5.07;3.70;;;2.40;99.90;;;;;;10352207;28;20756;-73
2023/01/18 07:46:35;;;;;;;7.17;4.37;;;2.40;99.90;;;;;;10357104;28;20220;-72
2023/01/18 07:51:36;;;;;;;6.63;4.00;;;2.40;99.90;;;;;;10340941;28;20221;-72
2023/01/18 07:56:37;;;;;;;4.03;3.10;;;2.40;99.90;;;;;;10342114;28;20230;-71
2023/01/18 08:01:38;;;;;;;7.33;3.70;;;2.50;99.90;;;;;;10337825;28;20225;-72
2023/01/18 08:06:42;;;;;;;7.93;4.13;;;2.50;99.90;;;;;;10350501;28;20225;-73
2023/01/18 08:11:42;;;;;;;5.23;3.20;;;2.60;99.90;;;;;;10347877;28;20691;-73
2023/01/18 08:16:43;;;;;;;8.27;3.67;;;2.80;99.90;;;;;;10347434;28;20232;-73
2023/01/18 08:21:44;;;;;;;5.50;3.23;;;2.80;99.90;;;;;;10332180;28;20704;-73
2023/01/18 08:26:45;;;;;;;4.40;2.87;;;3.00;99.90;;;;;;10357407;28;20229;-73
2023/01/18 08:31:45;;;;;;;3.53;2.30;;;3.10;99.90;;;;;;10348397;28;20229;-73
2023/01/18 08:36:46;;;;;;;4.37;2.10;;;3.10;99.90;;;;;;10340807;28;20222;-73
2023/01/18 08:41:48;;;;;;;4.93;2.70;;;3.20;99.90;;;;;;10356060;28;20239;-72
2023/01/18 08:46:49;;;;;;;4.00;2.33;;;3.40;99.90;;;;;;10350421;28;20232;-72
2023/01/18 08:51:50;;;;;;;6.33;2.63;;;3.60;99.90;;;;;;10357429;28;20695;-72
2023/01/18 08:56:51;;;;;;;6.47;2.77;;;3.80;99.90;;;;;;10358074;28;20264;-72
2023/01/18 09:01:52;;;;;;;4.90;2.60;;;4.10;99.90;;;;;;10346947;28;20592;-72
2023/01/18 09:06:52;;;;;;;4.93;2.70;;;4.40;99.90;;;;;;10345287;28;20252;-72
2023/01/18 09:11:54;;;;;;;3.77;2.60;;;4.60;99.90;;;;;;10340403;28;20221;-73
2023/01/18 09:16:55;;;;;;;7.10;2.83;;;4.90;99.90;;;;;;10352311;28;20712;-73
2023/01/18 09:21:55;;;;;;;6.50;3.40;;;5.30;99.90;;;;;;10349399;28;20229;-72
2023/01/18 09:26:56;;;;;;;4.50;2.50;;;5.50;99.90;;;;;;10353443;28;20306;-73
2023/01/18 09:31:57;;;;;;;4.87;3.20;;;5.50;99.90;;;;;;10347475;28;20237;-73
2023/01/18 09:36:57;;;;;;;4.83;2.80;;;5.30;99.90;;;;;;10350407;28;20274;-73
2023/01/18 09:42:00;;;;;;;4.07;2.80;;;5.10;99.90;;;;;;10345630;28;20233;-73
2023/01/18 09:47:39;;;;;;;4.87;2.67;;;5.00;99.90;;;;;;10355250;28;20213;-73
2023/01/18 09:53:01;;;;;;;5.13;2.50;;;5.10;99.90;;;;;;10307197;28;20313;-72
2023/01/18 09:58:27;;;;;;;3.60;2.40;;;5.10;99.90;;;;;;10348499;28;20681;-72
2023/01/18 10:03:37;;;;;;;4.83;2.50;;;5.20;99.90;;;;;;10332166;28;20225;-73
2023/01/18 10:08:53;;;;;;;6.50;2.37;;;5.30;99.90;;;;;;10346287;28;20734;-73
2023/01/18 10:14:18;;;;;;;4.53;2.63;;;5.70;99.90;;;;;;10345700;28;20225;-72
2023/01/18 10:19:23;;;;;;;4.90;2.40;;;5.80;99.90;;;;;;10338568;28;20692;-74
2023/01/18 10:24:49;;;;;;;5.57;2.40;;;6.10;99.90;;;;;;10343588;28;20701;-73
2023/01/18 10:30:32;;;;;;;8.20;2.63;;;6.50;99.90;;;;;;10346438;28;20268;-72
2023/01/18 10:35:38;;;;;;;3.73;2.20;;;6.90;99.90;;;;;;10335867;28;20211;-72
2023/01/18 10:40:39;;;;;;;4.83;2.73;;;7.50;99.90;;;;;;10352438;28;20258;-73
2023/01/18 10:45:40;;;;;;;5.50;2.87;;;8.30;99.90;;;;;;10342969;28;20247;-74
2023/01/18 10:50:44;;;;;;;5.47;2.63;;;9.70;99.90;;;;;;10351059;28;20607;-73
2023/01/18 10:56:08;;;;;;;4.83;2.87;;;10.60;96.70;;;;;;10344569;28;20236;-72
2023/01/18 11:01:16;;;;;;;5.77;2.00;;;13.30;87.10;;;;;;10347956;28;20776;-72
2023/01/18 11:06:19;;;;;;;7.27;3.03;;;14.30;70.50;;;;;;10359047;28;20766;-72
2023/01/18 11:12:32;;;;;;;5.33;2.30;;;14.70;61.90;;;;;;10349436;28;20244;-73
2023/01/18 11:16:57;;;;;;;4.53;2.40;;;14.10;60.30;;;;;;10344263;28;20253;-72
2023/01/18 11:21:58;;;;;;;6.67;2.20;;;14.50;61.10;;;;;;10350362;28;20240;-72
2023/01/18 11:27:10;;;;;;;6.33;2.13;;;15.80;56.10;;;;;;10348186;28;20226;-71
2023/01/18 11:32:25;;;;;;;4.60;2.00;;;15.50;54.40;;;;;;10347626;28;20228;-72
2023/01/18 11:37:36;;;;;;;4.23;2.10;;;13.10;56.90;;;;;;10352935;28;20220;-72
2023/01/18 11:42:37;;;;;;;3.90;1.80;;;10.70;63.20;;;;;;10359731;28;20231;-73
2023/01/18 11:47:54;;;;;;;4.23;2.00;;;9.40;67.80;;;;;;10343549;28;20220;-73
2023/01/18 11:53:03;;;;;;;3.80;1.63;;;8.30;71.00;;;;;;10357908;28;20220;-73
2023/01/18 11:58:18;;;;;;;5.60;2.00;;;7.80;74.20;;;;;;10349397;28;20228;-73
2023/01/18 12:03:46;;;;;;;4.77;2.40;;;7.50;75.00;;;;;;10355722;28;20222;-71
2023/01/18 12:08:58;;;;;;;5.97;2.40;;;7.20;76.30;;;;;;10333830;28;20231;-73
2023/01/18 12:14:04;;;;;;;5.07;2.47;;;7.10;77.40;;;;;;10356430;28;20246;-72
2023/01/18 12:19:27;;;;;;;4.90;2.13;;;7.00;79.40;;;;;;10353375;28;20229;-72
2023/01/18 12:24:57;;;;;;;5.80;2.40;;;7.00;79.20;;;;;;10358745;28;20224;-72
2023/01/18 12:30:23;;;;;;;4.77;2.57;;;7.00;79.20;;;;;;10357928;28;20247;-73
2023/01/18 12:35:42;;;;;;;5.03;2.40;;;7.00;80.10;;;;;;10354442;28;21055;-72
2023/01/18 12:41:20;;;;;;;3.90;2.43;;;7.00;80.90;;;;;;10348621;28;20236;-73
2023/01/18 12:46:56;;;;;;;6.53;3.10;;;6.90;80.80;;;;;;10355977;28;20653;-73
2023/01/18 12:52:02;;;;;;;6.20;3.43;;;6.90;81.10;;;;;;10350143;28;20394;-74
2023/01/18 12:57:03;;;;;;;9.47;4.10;;;6.80;81.90;;;;;;10340088;28;20232;-73
2023/01/18 13:02:22;;;;;;;8.97;4.20;;;6.60;84.20;;;;;;10352407;28;20286;-73
2023/01/18 13:07:33;;;;;;;9.97;4.50;;;6.40;85.20;;;;;;10359427;28;20221;-71
2023/01/18 13:12:34;;;;;;;11.27;5.40;;;6.30;86.80;;;;;;10349639;28;20229;-72
2023/01/18 13:18:06;;;;;;;13.60;5.10;;;6.20;89.70;;;;;;10354044;28;20235;-73
2023/01/18 13:23:46;;;;;;;10.23;5.33;;;6.10;90.20;;;;;;10329768;28;20371;-72
2023/01/18 13:28:47;;;;;;;10.80;5.33;;;5.90;91.10;;;;;;10347711;28;20458;-73
2023/01/18 13:33:55;;;;;;;7.50;4.83;;;5.90;91.30;;;;;;10347650;28;20262;-73
2023/01/18 13:39:07;;;;;;;8.17;5.00;;;5.70;90.80;;;;;;10343707;28;20259;-73
2023/01/18 13:44:34;;;;;;;9.70;5.07;;;5.60;90.70;;;;;;10356140;28;21042;-73
2023/01/18 13:49:45;;;;;;;9.13;4.90;;;5.50;90.90;;;;;;10355896;28;20283;-73
2023/01/18 13:54:45;;;;;;;7.43;4.77;;;5.50;91.40;;;;;;10329607;28;20225;-73
2023/01/18 13:59:49;;;;;;;11.50;4.67;;;5.40;91.00;;;;;;10347356;28;20260;-73
2023/01/18 14:05:04;;;;;;;8.60;4.57;;;5.40;90.60;;;;;;10354232;28;20215;-73
2023/01/18 14:10:16;;;;;;;9.77;4.87;;;5.30;90.40;;;;;;10341529;28;20229;-73
2023/01/18 14:15:42;;;;;;;6.90;4.50;;;5.30;90.20;;;;;;10350023;28;20183;-73
2023/01/18 14:20:58;;;;;;;10.70;5.57;;;5.20;90.90;;;;;;10327629;28;20225;-72
2023/01/18 14:26:12;;;;;;;8.13;5.03;;;5.20;90.90;;;;;;10344640;28;20226;-73
2023/01/18 14:31:19;;;;;;;7.93;4.73;;;5.10;91.30;;;;;;10353762;28;20260;-73
2023/01/18 14:36:26;;;;;;;9.73;5.10;;;5.00;91.40;;;;;;10344970;28;20569;-73
2023/01/18 14:41:29;;;;;;;9.60;5.30;;;4.90;91.90;;;;;;10341752;28;20237;-72
2023/01/18 14:46:30;;;;;;;10.40;5.03;;;4.80;92.40;;;;;;10346856;28;20224;-73
2023/01/18 14:51:31;;;;;;;10.17;5.13;;;4.70;93.20;;;;;;10351447;28;20230;-72
2023/01/18 14:56:39;;;;;;;8.33;5.43;;;4.60;94.00;;;;;;10349537;28;20792;-72
2023/01/18 15:01:49;;;;;;;9.17;5.30;;;4.50;94.50;;;;;;10344904;28;20684;-73
2023/01/18 15:06:52;;;;;;;9.60;4.93;;;4.40;95.20;;;;;;10344181;28;20223;-72
2023/01/18 15:11:57;;;;;;;8.73;5.93;;;4.40;95.50;;;;;;10343665;28;20681;-73
2023/01/18 15:16:59;;;;;;;8.17;4.90;;;4.30;95.90;;;;;;10336849;28;20223;-71
2023/01/18 15:22:00;;;;;;;8.37;5.13;;;4.30;96.90;;;;;;10337004;28;20256;-72
2023/01/18 15:27:02;;;;;;;9.47;5.63;;;4.20;97.50;;;;;;10351003;28;20641;-74
2023/01/18 15:32:10;;;;;;;8.17;4.90;;;4.20;97.60;;;;;;10348143;28;20597;-72
2023/01/18 15:37:29;;;;;;;8.97;5.57;;;4.20;98.10;;;;;;10334275;28;20226;-72
2023/01/18 15:42:37;;;;;;;12.17;7.07;;;4.10;99.30;;;;;;10363716;28;20283;-72
2023/01/18 15:47:38;;;;;;;11.10;7.27;;;4.00;99.90;;;;;;10354071;28;20650;-73
2023/01/18 15:53:00;;;;;;;12.00;6.60;;;3.90;99.90;;;;;;10343615;28;20241;-74
2023/01/18 15:58:05;;;;;;;13.23;8.17;;;3.70;99.90;;;;;;10343367;28;20232;-73
2023/01/18 16:03:28;;;;;;;10.20;6.93;;;3.50;99.90;;;;;;10346257;28;20237;-72
2023/01/18 16:08:28;;;;;;;15.47;7.77;;;3.30;99.90;;;;;;10350413;28;20224;-73
2023/01/18 16:13:37;;;;;;;15.63;7.87;;;3.10;99.90;;;;;;10348698;28;20228;-72
2023/01/18 16:18:42;;;;;;;11.63;7.27;;;3.00;99.90;;;;;;10351942;28;20230;-73
2023/01/18 16:23:47;;;;;;;14.10;8.73;;;2.80;99.90;;;;;;10351301;28;20256;-73
2023/01/18 16:28:50;;;;;;;15.17;8.50;;;2.60;99.90;;;;;;10343386;28;20272;-73
2023/01/18 16:33:51;;;;;;;12.20;7.57;;;2.40;99.90;;;;;;10341448;28;20219;-73
2023/01/18 16:38:51;;;;;;;16.17;8.47;;;2.20;99.90;;;;;;10355831;28;20229;-72
2023/01/18 16:43:52;;;;;;;12.27;8.80;;;2.10;99.90;;;;;;10343109;28;20260;-73
2023/01/18 16:48:52;;;;;;;13.23;8.37;;;2.00;99.90;;;;;;10357463;28;20221;-73
2023/01/18 16:53:54;;;;;;;17.97;9.53;;;1.90;99.90;;;;;;10357332;28;20606;-73
2023/01/18 16:58:54;;;;;;;15.30;9.60;;;1.80;99.90;;;;;;10356127;28;20225;-72
2023/01/18 17:03:55;;;;;;;18.30;11.53;;;1.60;99.90;;;;;;10350669;28;20224;-73
2023/01/18 17:08:56;;;;;;;15.70;10.53;;;1.50;99.90;;;;;;10345243;28;20238;-73
2023/01/18 17:13:56;;;;;;;14.97;9.57;;;1.40;99.90;;;;;;10341131;28;20237;-72
2023/01/18 17:18:59;;;;;;;20.00;11.30;;;1.30;99.90;;;;;;10352142;28;20229;-73
2023/01/18 17:24:04;;;;;;;19.57;11.60;;;1.20;99.90;;;;;;10354321;28;20234;-73
2023/01/18 17:29:05;;;;;;;16.37;10.37;;;1.20;99.90;;;;;;10351393;28;20327;-73
2023/01/18 17:34:05;;;;;;;15.93;8.93;;;1.10;99.90;;;;;;10356297;28;20275;-73
2023/01/18 17:39:06;;;;;;;24.97;12.60;;;1.10;99.90;;;;;;10352469;28;20627;-72
2023/01/18 17:44:08;;;;;;;19.13;12.70;;;1.00;99.90;;;;;;10359643;28;20218;-73
2023/01/18 17:49:08;;;;;;;16.33;10.90;;;1.00;99.90;;;;;;10339983;28;20292;-73
2023/01/18 17:54:10;;;;;;;13.73;8.37;;;1.00;99.90;;;;;;10355074;28;20323;-73
2023/01/18 17:59:10;;;;;;;12.23;8.30;;;0.90;99.90;;;;;;10358385;28;20256;-70
2023/01/18 18:04:20;;;;;;;12.73;8.50;;;0.90;99.90;;;;;;10361452;28;20249;-73
2023/01/18 18:09:25;;;;;;;13.23;8.20;;;0.90;99.90;;;;;;10345052;28;20225;-72
2023/01/18 18:14:25;;;;;;;14.07;8.30;;;0.90;99.90;;;;;;10353500;28;20304;-72
2023/01/18 18:19:29;;;;;;;17.67;9.23;;;0.80;99.90;;;;;;10354926;28;20271;-73
2023/01/18 18:24:30;;;;;;;15.67;9.63;;;0.80;99.90;;;;;;10344547;28;20296;-72
2023/01/18 18:29:30;;;;;;;18.87;9.50;;;0.70;99.90;;;;;;10346018;28;20317;-73
2023/01/18 18:34:32;;;;;;;15.50;10.07;;;0.70;99.90;;;;;;10344946;28;20225;-72
2023/01/18 18:39:33;;;;;;;16.10;9.93;;;0.60;99.90;;;;;;10351174;28;20230;-70
2023/01/18 18:44:33;;;;;;;16.23;9.53;;;0.60;99.90;;;;;;10344697;28;20229;-70
2023/01/18 18:49:34;;;;;;;17.90;10.03;;;0.50;99.90;;;;;;10352224;28;20285;-71
2023/01/18 18:54:34;;;;;;;13.27;8.57;;;0.50;99.90;;;;;;10352180;28;20218;-72
2023/01/18 18:59:35;;;;;;;18.03;9.90;;;0.50;99.90;;;;;;10342575;28;20340;-72
2023/01/18 19:04:35;;;;;;;14.43;9.03;;;0.40;99.90;;;;;;10347483;28;20479;-74
2023/01/18 19:09:36;;;;;;;13.47;8.73;;;0.30;99.90;;;;;;10348146;28;20580;-72
2023/01/18 19:14:37;;;;;;;17.23;10.33;;;0.30;99.90;;;;;;10352961;28;20252;-72
2023/01/18 19:19:37;;;;;;;17.13;10.07;;;0.30;99.90;;;;;;10347226;28;20229;-73
2023/01/18 19:24:39;;;;;;;17.97;10.33;;;0.30;99.90;;;;;;10354302;28;20240;-73
2023/01/18 19:29:40;;;;;;;17.83;8.90;;;0.30;99.90;;;;;;10365559;28;20216;-72
2023/01/18 19:34:41;;;;;;;14.83;9.30;;;0.30;99.90;;;;;;10361688;28;20357;-71
2023/01/18 19:39:42;;;;;;;15.77;9.17;;;0.30;99.90;;;;;;10354804;28;20221;-72
2023/01/18 19:44:43;;;;;;;16.03;9.30;;;0.30;99.90;;;;;;10357587;28;20312;-72
2023/01/18 19:49:44;;;;;;;15.17;8.73;;;0.30;99.90;;;;;;10354495;28;20253;-74
2023/01/18 19:54:45;;;;;;;12.80;8.17;;;0.30;99.90;;;;;;10359309;28;20259;-75
2023/01/18 19:59:45;;;;;;;16.20;8.80;;;0.30;99.90;;;;;;10333139;28;20371;-75
2023/01/18 20:04:46;;;;;;;15.63;10.10;;;0.30;99.90;;;;;;10357586;28;20224;-72
2023/01/18 20:09:47;;;;;;;13.93;9.13;;;0.30;99.90;;;;;;10358294;28;20217;-72
2023/01/18 20:14:48;;;;;;;15.30;9.63;;;0.30;99.90;;;;;;10357321;28;20234;-73
2023/01/18 20:19:53;;;;;;;16.83;10.03;;;0.30;99.90;;;;;;10357550;28;20578;-73
2023/01/18 20:24:53;;;;;;;17.50;9.57;;;0.20;99.90;;;;;;10344418;28;20354;-73
2023/01/18 20:29:54;;;;;;;15.93;9.90;;;0.20;99.90;;;;;;10349826;28;20385;-73
2023/01/18 20:34:57;;;;;;;15.83;9.37;;;0.20;99.90;;;;;;10358061;28;20229;-73
2023/01/18 20:39:57;;;;;;;15.70;9.03;;;0.20;99.90;;;;;;10351906;28;20234;-73
2023/01/18 20:44:59;;;;;;;21.80;10.77;;;0.10;99.90;;;;;;10364132;28;20573;-73
2023/01/18 20:49:59;;;;;;;14.70;9.83;;;0.10;99.90;;;;;;10348558;28;20261;-73
2023/01/18 20:55:00;;;;;;;19.00;9.67;;;0.20;99.90;;;;;;10349882;28;20252;-73
2023/01/18 21:00:01;;;;;;;17.53;9.87;;;0.10;99.90;;;;;;10345892;28;20799;-73
2023/01/18 21:05:02;;;;;;;17.13;9.87;;;0.10;99.90;;;;;;10332803;28;20280;-72
2023/01/18 21:10:03;;;;;;;15.53;9.30;;;0.10;99.90;;;;;;10351489;28;20233;-72
2023/01/18 21:15:07;;;;;;;18.43;9.30;;;0.10;99.90;;;;;;10350355;28;20324;-72
2023/01/18 21:20:09;;;;;;;15.70;10.13;;;0.20;99.90;;;;;;10350508;28;20261;-73
2023/01/18 21:25:10;;;;;;;16.33;10.07;;;0.20;99.90;;;;;;10351505;28;20189;-74
2023/01/18 21:30:11;;;;;;;15.70;9.40;;;0.20;99.90;;;;;;10355761;28;20734;-74
2023/01/18 21:35:12;;;;;;;15.60;9.97;;;0.20;99.90;;;;;;10352284;28;20186;-71
2023/01/18 21:40:13;;;;;;;17.87;9.77;;;0.20;99.90;;;;;;10364002;28;20217;-72
2023/01/18 21:55:53;;;;;;;14.23;9.00;;;0.10;99.90;;;;;;10362519;28;20728;-70
2023/01/18 22:00:59;;;;;;;14.57;9.70;;;0.00;99.90;;;;;;10344785;28;20229;-71
2023/01/18 22:05:59;;;;;;;14.17;8.77;;;0.00;99.90;;;;;;10339696;28;20228;-72
2023/01/18 22:11:00;;;;;;;15.90;8.97;;;0.00;99.90;;;;;;10353444;28;20243;-72
2023/01/18 22:16:05;;;;;;;14.80;8.13;;;0.00;99.90;;;;;;10354968;28;20225;-71
2023/01/18 22:21:06;;;;;;;14.63;9.53;;;0.00;99.90;;;;;;10349520;28;20233;-71
2023/01/18 22:26:07;;;;;;;15.07;8.33;;;0.00;99.90;;;;;;10349363;28;20240;-72
2023/01/18 22:31:07;;;;;;;14.63;8.53;;;0.00;99.90;;;;;;10336665;28;20727;-72
2023/01/18 22:36:08;;;;;;;15.50;8.70;;;0.00;99.90;;;;;;10344221;28;20225;-72
2023/01/18 22:41:12;;;;;;;11.57;7.50;;;0.00;99.90;;;;;;10347808;28;20234;-71
2023/01/18 22:46:18;;;;;;;11.70;7.67;;;-0.10;99.90;;;;;;10349728;28;20225;-73
2023/01/18 22:51:22;;;;;;;11.33;7.83;;;-0.10;99.90;;;;;;10353011;28;20233;-71
2023/01/18 22:56:24;;;;;;;14.10;8.00;;;-0.10;99.90;;;;;;10345429;28;20293;-69
2023/01/18 23:01:29;;;;;;;12.17;7.67;;;-0.10;99.90;;;;;;10345298;28;20287;-71
2023/01/18 23:06:44;;;;;;;15.63;8.57;;;-0.10;99.90;;;;;;10343944;28;20560;-69
2023/01/18 23:11:46;;;;;;;14.17;7.47;;;0.00;99.90;;;;;;10344607;28;20251;-70
2023/01/18 23:22:06;;;;;;;10.00;7.23;;;0.00;99.90;;;;;;10351050;28;20233;-69
2023/01/18 23:27:11;;;;;;;10.23;6.87;;;0.00;99.90;;;;;;10347280;28;20606;-69
2023/01/18 23:32:11;;;;;;;12.00;7.57;;;0.10;99.90;;;;;;10347140;28;20740;-69
2023/01/18 23:37:12;;;;;;;10.63;6.93;;;0.10;99.90;;;;;;10347268;28;20311;-70
2023/01/18 23:58:13;;;;;;;13.77;7.37;;;-0.10;99.90;;;;;;10359925;28;20589;-72
